Terminal Aerodrome Forecast
Issued by NWS

Home | Current Version | Previous Version | Text Only | Print | Product List | Glossary On
Versions: 1 2 3 4 5 6 7 8 9 10 11 12 13 14 15 16 17 18 19 20 21 22
000
FTUS46 KLOX 061123
TAFSBA
TAF
KSBA 061123Z 0612/0712 VRB03KT 6SM BR OVC005
     FM061600 VRB03KT P6SM OVC010
     FM061800 21006KT P6SM OVC015
     FM062100 26010KT P6SM SCT018
     FM070100 29008KT P6SM SKC WS010/34025KT
     FM071100 VRB03KT P6SM BKN010=

USA.gov is the U.S. government's official web portal to all federal, state and local government web resources and services.